createdAt,value
2022-08-16T00:01:42.585Z,7.68
2022-08-16T00:04:12.780Z,8.32
2022-08-16T00:06:40.824Z,7.63
2022-08-16T00:11:43.100Z,6.55
2022-08-16T00:14:17.563Z,6.95
2022-08-16T00:17:01.607Z,7.13
2022-08-16T00:19:41.241Z,7.70
2022-08-16T00:22:13.307Z,7.30
2022-08-16T00:24:41.520Z,7.57
2022-08-16T00:29:40.005Z,6.75
2022-08-16T00:32:11.005Z,6.68
2022-08-16T00:34:43.923Z,6.83
2022-08-16T00:37:24.398Z,6.88
2022-08-16T00:42:32.349Z,5.85
2022-08-16T00:45:25.650Z,7.43
2022-08-16T00:47:53.761Z,7.20
2022-08-16T00:50:36.228Z,6.88
2022-08-16T00:53:14.816Z,6.78
2022-08-16T00:55:51.180Z,6.45
2022-08-16T00:58:34.257Z,6.93
2022-08-16T01:01:07.984Z,6.80
2022-08-16T01:03:41.714Z,7.05
2022-08-16T01:06:40.742Z,7.18
2022-08-16T01:09:03.757Z,6.70
2022-08-16T01:11:32.207Z,6.88
2022-08-16T01:14:15.438Z,6.70
2022-08-16T01:16:49.335Z,7.32
2022-08-16T01:19:31.728Z,6.63
2022-08-16T01:22:48.426Z,7.05
2022-08-16T01:25:33.956Z,6.38
2022-08-16T01:28:08.873Z,6.28
2022-08-16T01:30:49.607Z,7.28
2022-08-16T01:33:20.459Z,7.05
2022-08-16T01:36:09.487Z,6.75
2022-08-16T01:38:49.345Z,6.88
2022-08-16T01:41:32.809Z,6.05
2022-08-16T01:44:10.630Z,6.45
2022-08-16T01:46:45.939Z,5.95
2022-08-16T01:49:43.150Z,6.05
2022-08-16T01:52:29.694Z,5.82
2022-08-16T01:55:24.593Z,7.13
2022-08-16T01:57:56.327Z,6.80
2022-08-16T02:00:29.158Z,7.03
2022-08-16T02:03:00.278Z,7.20
2022-08-16T02:05:30.447Z,6.95
2022-08-16T02:07:59.830Z,6.65
2022-08-16T02:10:28.973Z,6.55
2022-08-16T02:13:00.518Z,6.72
2022-08-16T02:15:40.335Z,6.30
2022-08-16T02:18:12.727Z,6.35
2022-08-16T02:20:45.340Z,6.65
2022-08-16T02:23:17.303Z,6.82
2022-08-16T02:25:52.922Z,6.70
2022-08-16T02:28:25.169Z,6.68
2022-08-16T02:30:59.779Z,6.10
2022-08-16T02:33:43.403Z,5.28
2022-08-16T02:36:47.778Z,5.78
2022-08-16T02:39:14.815Z,6.28
2022-08-16T02:41:46.193Z,5.93
2022-08-16T02:44:21.992Z,6.22
2022-08-16T02:46:54.895Z,5.40
2022-08-16T02:49:58.123Z,5.53
2022-08-16T02:52:17.400Z,5.90
2022-08-16T02:55:00.794Z,5.72
2022-08-16T02:57:29.262Z,6.75
2022-08-16T02:59:58.594Z,6.15
2022-08-16T03:02:31.756Z,6.35
2022-08-16T03:05:06.926Z,6.13
2022-08-16T03:07:37.062Z,6.63
2022-08-16T03:10:09.860Z,6.05
2022-08-16T03:12:56.365Z,6.30
2022-08-16T03:15:29.271Z,6.50
2022-08-16T03:17:57.514Z,5.65
2022-08-16T03:20:32.245Z,5.95
2022-08-16T03:23:02.895Z,6.80
2022-08-16T03:25:44.154Z,5.95
2022-08-16T03:28:17.101Z,6.18
2022-08-16T03:30:47.534Z,6.35
2022-08-16T03:33:16.732Z,6.72
2022-08-16T03:35:59.475Z,5.93
2022-08-16T03:38:49.752Z,6.32
2022-08-16T03:41:25.298Z,6.38
2022-08-16T03:43:57.750Z,5.93
2022-08-16T03:46:47.364Z,6.07
2022-08-16T03:49:20.493Z,6.68
2022-08-16T03:51:53.147Z,6.40
2022-08-16T03:54:29.325Z,5.53
2022-08-16T03:56:58.952Z,5.93
2022-08-16T03:59:31.653Z,6.15
2022-08-16T04:02:12.181Z,5.60
2022-08-16T04:04:51.925Z,5.80
2022-08-16T04:07:19.971Z,6.55
2022-08-16T04:09:52.295Z,6.05
2022-08-16T04:12:53.200Z,5.57
2022-08-16T04:15:11.123Z,5.90
2022-08-16T04:17:49.131Z,6.47
2022-08-16T04:20:29.521Z,6.15
2022-08-16T04:23:04.562Z,5.95
2022-08-16T04:25:36.035Z,6.45
2022-08-16T04:28:53.014Z,6.05
2022-08-16T04:30:55.526Z,6.03
2022-08-16T04:33:27.357Z,6.85
2022-08-16T04:35:58.948Z,5.57
2022-08-16T04:38:30.579Z,5.55
2022-08-16T04:40:59.849Z,5.65
2022-08-16T04:43:28.180Z,5.53
2022-08-16T04:46:00.468Z,6.32
2022-08-16T04:48:33.965Z,6.65
2022-08-16T04:51:12.304Z,6.07
2022-08-16T04:53:48.270Z,6.30
2022-08-16T04:56:19.526Z,6.10
2022-08-16T04:58:47.523Z,6.27
2022-08-16T05:01:18.277Z,6.70
2022-08-16T05:04:00.951Z,6.22
2022-08-16T05:06:41.966Z,6.07
2022-08-16T05:09:23.185Z,6.22
2022-08-16T05:11:57.527Z,5.72
2022-08-16T05:14:46.656Z,6.82
2022-08-16T05:17:24.844Z,5.78
2022-08-16T05:19:58.359Z,5.80
2022-08-16T05:22:39.660Z,5.93
2022-08-16T05:25:16.259Z,5.57
2022-08-16T05:27:49.954Z,5.60
2022-08-16T05:30:34.719Z,5.85
2022-08-16T05:33:05.936Z,5.40
2022-08-16T05:35:36.995Z,5.07
2022-08-16T05:38:32.996Z,5.82
2022-08-16T05:41:10.139Z,4.85
2022-08-16T05:43:46.774Z,5.65
2022-08-16T05:46:28.735Z,5.35
2022-08-16T05:49:08.734Z,5.78
2022-08-16T05:51:41.554Z,5.38
2022-08-16T05:54:14.587Z,6.05
2022-08-16T05:56:50.056Z,5.90
2022-08-16T05:59:19.527Z,5.75
2022-08-16T06:01:52.156Z,5.65
2022-08-16T06:04:36.703Z,5.97
2022-08-16T06:07:09.595Z,5.07
2022-08-16T06:10:00.135Z,4.93
2022-08-16T06:12:31.612Z,5.30
2022-08-16T06:15:17.441Z,5.63
2022-08-16T06:20:34.850Z,4.45
2022-08-16T06:23:18.235Z,5.72
2022-08-16T06:26:15.229Z,4.90
2022-08-16T06:28:47.528Z,5.57
2022-08-16T06:31:24.967Z,5.20
2022-08-16T06:36:24.266Z,4.68
2022-08-16T06:39:00.967Z,4.75
2022-08-16T06:41:50.455Z,4.88
2022-08-16T06:44:41.094Z,3.90
2022-08-16T06:47:25.109Z,4.47
2022-08-16T06:50:22.090Z,4.55
2022-08-16T06:53:00.320Z,4.30
2022-08-16T06:55:34.332Z,3.88
2022-08-16T06:58:08.449Z,4.10
2022-08-16T07:00:38.519Z,4.10
2022-08-16T07:03:27.944Z,3.60
2022-08-16T07:05:58.418Z,4.00
2022-08-16T07:08:32.397Z,3.92
2022-08-16T07:11:01.496Z,3.85
2022-08-16T07:16:27.809Z,3.90
2022-08-16T07:19:01.915Z,3.45
2022-08-16T07:21:46.222Z,3.42
2022-08-16T07:24:29.750Z,3.10
2022-08-16T07:27:04.430Z,3.92
2022-08-16T07:29:40.237Z,3.63
2022-08-16T07:32:10.114Z,3.35
2022-08-16T07:34:48.470Z,3.28
2022-08-16T07:37:23.032Z,2.83
2022-08-16T07:40:11.440Z,3.13
2022-08-16T07:42:43.016Z,3.38
2022-08-16T07:45:11.880Z,2.75
2022-08-16T07:47:45.819Z,3.13
2022-08-16T07:50:56.694Z,2.67
2022-08-16T07:53:07.932Z,3.30
2022-08-16T07:55:45.942Z,3.05
2022-08-16T07:58:35.205Z,2.50
2022-08-16T08:01:10.873Z,2.42
2022-08-16T08:03:48.994Z,2.75
2022-08-16T08:06:25.049Z,2.88
2022-08-16T08:08:59.143Z,3.25
2022-08-16T08:11:29.638Z,3.28
2022-08-16T08:14:03.094Z,2.88
2022-08-16T08:16:37.637Z,2.60
2022-08-16T08:19:10.698Z,2.35
2022-08-16T08:22:00.754Z,2.70
2022-08-16T08:24:50.041Z,3.30
2022-08-16T08:27:23.115Z,2.67
2022-08-16T08:30:09.231Z,2.65
2022-08-16T08:32:57.061Z,2.42
2022-08-16T08:35:28.430Z,3.15
2022-08-16T08:37:58.447Z,3.05
2022-08-16T08:40:30.416Z,3.03
2022-08-16T08:43:11.668Z,2.60
2022-08-16T08:45:46.907Z,2.75
2022-08-16T08:48:33.360Z,2.88
2022-08-16T08:51:09.254Z,2.88
2022-08-16T08:53:57.463Z,2.80
2022-08-16T08:56:34.699Z,2.50
2022-08-16T08:59:22.329Z,2.60
2022-08-16T09:01:57.639Z,2.80
2022-08-16T09:04:40.072Z,3.03
2022-08-16T09:07:09.586Z,3.30
2022-08-16T09:09:41.545Z,5.88
2022-08-16T09:12:35.593Z,2.70
2022-08-16T09:15:09.081Z,2.40
2022-08-16T09:17:55.118Z,3.08
2022-08-16T09:20:27.893Z,3.17
2022-08-16T09:22:57.283Z,2.60
2022-08-16T09:25:40.552Z,2.22
2022-08-16T09:29:13.927Z,2.13
2022-08-16T09:31:17.172Z,2.50
2022-08-16T09:33:45.404Z,1.83
2022-08-16T09:36:32.967Z,2.28
2022-08-16T09:39:03.699Z,2.00
2022-08-16T09:41:32.021Z,2.07
2022-08-16T09:44:02.234Z,2.05
2022-08-16T09:49:18.276Z,2.10
2022-08-16T09:51:53.594Z,2.20
2022-08-16T09:54:32.203Z,1.95
2022-08-16T09:57:00.992Z,2.42
2022-08-16T09:59:30.442Z,2.10
2022-08-16T10:01:58.985Z,2.80
2022-08-16T10:04:30.172Z,2.10
2022-08-16T10:07:15.163Z,2.33
2022-08-16T10:09:54.775Z,2.17
2022-08-16T10:12:55.782Z,3.10
2022-08-16T10:15:30.311Z,2.33
2022-08-16T10:18:02.511Z,2.40
2022-08-16T10:23:17.559Z,2.20
2022-08-16T10:27:17.977Z,1.83
2022-08-16T10:28:40.094Z,1.77
2022-08-16T10:31:14.456Z,2.20
2022-08-16T10:33:48.524Z,2.13
2022-08-16T10:36:39.405Z,2.03
2022-08-16T10:39:05.536Z,1.92
2022-08-16T10:41:36.705Z,2.15
2022-08-16T10:44:04.765Z,1.75
2022-08-16T10:46:40.732Z,1.67
2022-08-16T10:49:11.637Z,1.88
2022-08-16T10:54:28.579Z,1.73
2022-08-16T10:57:00.617Z,1.70
2022-08-16T10:59:38.981Z,1.60
2022-08-16T11:02:57.793Z,2.00
2022-08-16T11:05:11.907Z,2.10
2022-08-16T11:07:45.600Z,1.85
2022-08-16T11:19:13.182Z,2.40
2022-08-16T11:24:39.614Z,2.63
2022-08-16T11:27:23.865Z,2.20
2022-08-16T11:29:56.961Z,2.15
2022-08-16T11:32:30.126Z,2.20
2022-08-16T11:35:10.273Z,2.00
2022-08-16T11:40:38.005Z,2.05
2022-08-16T11:43:07.695Z,1.73
2022-08-16T11:45:38.785Z,1.85
2022-08-16T11:48:10.657Z,2.00
2022-08-16T11:50:38.265Z,2.28
2022-08-16T11:53:08.342Z,2.00
2022-08-16T11:55:38.220Z,1.85
2022-08-16T11:58:10.867Z,1.88
2022-08-16T12:00:50.504Z,1.83
2022-08-16T12:03:24.993Z,1.98
2022-08-16T12:06:25.566Z,1.90
2022-08-16T12:09:00.861Z,2.13
2022-08-16T12:11:31.554Z,2.10
2022-08-16T12:16:37.050Z,2.20
2022-08-16T12:19:10.357Z,2.85
2022-08-16T12:21:58.932Z,2.40
2022-08-16T12:24:28.342Z,2.30
2022-08-16T12:26:59.983Z,2.15
2022-08-16T12:29:29.449Z,1.98
2022-08-16T12:32:00.636Z,2.30
2022-08-16T12:34:50.731Z,2.17
2022-08-16T12:37:24.450Z,2.75
2022-08-16T12:39:56.988Z,2.22
2022-08-16T12:42:35.267Z,2.20
2022-08-16T12:45:16.327Z,1.98
2022-08-16T12:48:31.444Z,2.10
2022-08-16T12:50:54.917Z,1.95
2022-08-16T12:53:25.812Z,1.92
2022-08-16T12:56:00.710Z,2.28
2022-08-16T12:58:49.828Z,1.90
2022-08-16T13:01:26.289Z,6.03
2022-08-16T13:04:11.387Z,3.20
2022-08-16T13:06:41.362Z,6.50
2022-08-16T13:09:42.137Z,2.38
2022-08-16T13:12:24.997Z,2.35
2022-08-16T13:14:54.348Z,2.03
2022-08-16T13:17:26.309Z,2.20
2022-08-16T13:20:13.663Z,2.22
2022-08-16T13:23:07.198Z,1.75
2022-08-16T13:25:40.667Z,2.17
2022-08-16T13:28:09.013Z,1.80
2022-08-16T13:30:49.380Z,1.80
2022-08-16T13:33:29.197Z,1.92
2022-08-16T13:36:00.742Z,2.33
2022-08-16T13:38:37.941Z,2.13
2022-08-16T13:41:12.795Z,1.90
2022-08-16T13:43:41.844Z,2.10
2022-08-16T13:46:09.945Z,2.17
2022-08-16T13:48:44.484Z,2.50
2022-08-16T13:51:18.957Z,2.47
2022-08-16T13:53:59.395Z,2.30
2022-08-16T13:56:37.136Z,2.22
2022-08-16T13:59:19.591Z,2.10
2022-08-16T14:01:55.761Z,2.17
2022-08-16T14:04:35.420Z,2.38
2022-08-16T14:07:09.347Z,2.05
2022-08-16T14:09:38.009Z,2.10
2022-08-16T14:12:24.332Z,1.75
2022-08-16T14:14:56.363Z,2.40
2022-08-16T14:17:26.875Z,2.10
2022-08-16T14:19:59.957Z,2.30
2022-08-16T14:22:39.685Z,2.28
2022-08-16T14:25:19.507Z,2.53
2022-08-16T14:27:47.949Z,2.08
2022-08-16T14:30:21.326Z,2.80
2022-08-16T14:32:51.083Z,2.55
2022-08-16T14:35:29.206Z,2.08
2022-08-16T14:38:06.025Z,2.33
2022-08-16T14:40:35.243Z,2.35
2022-08-16T14:43:05.550Z,2.42
2022-08-16T14:45:37.471Z,2.20
2022-08-16T14:48:10.367Z,2.58
2022-08-16T14:50:38.195Z,2.35
2022-08-16T14:53:09.471Z,2.28
2022-08-16T14:55:41.107Z,2.42
2022-08-16T14:58:10.423Z,2.10
2022-08-16T15:00:50.415Z,2.20
2022-08-16T15:03:22.488Z,2.15
2022-08-16T15:05:53.741Z,2.30
2022-08-16T15:08:34.149Z,2.38
2022-08-16T15:11:07.730Z,2.70
2022-08-16T15:13:36.238Z,2.50
2022-08-16T15:16:05.071Z,2.70
2022-08-16T15:18:33.792Z,3.17
2022-08-16T15:23:36.502Z,2.03
2022-08-16T15:26:08.754Z,2.78
2022-08-16T15:28:40.620Z,2.38
2022-08-16T15:31:13.022Z,2.40
2022-08-16T15:33:52.304Z,2.10
2022-08-16T15:36:26.517Z,2.35
2022-08-16T15:39:07.815Z,2.10
2022-08-16T15:41:47.071Z,2.90
2022-08-16T15:44:21.310Z,2.20
2022-08-16T15:46:55.837Z,2.10
2022-08-16T15:49:34.423Z,2.45
2022-08-16T15:52:07.736Z,2.35
2022-08-16T15:54:48.656Z,2.53
2022-08-16T15:57:25.211Z,2.58
2022-08-16T15:59:56.326Z,2.17
2022-08-16T16:02:42.123Z,2.25
2022-08-16T16:05:10.464Z,2.45
2022-08-16T16:07:40.810Z,2.55
2022-08-16T16:10:13.511Z,2.05
2022-08-16T16:12:54.050Z,2.30
2022-08-16T16:15:34.414Z,2.30
2022-08-16T16:18:09.467Z,2.55
2022-08-16T16:20:52.119Z,2.10
2022-08-16T16:23:29.336Z,2.28
2022-08-16T16:25:58.665Z,2.22
2022-08-16T16:29:05.133Z,2.60
2022-08-16T16:31:20.251Z,2.88
2022-08-16T16:33:55.957Z,1.83
2022-08-16T16:36:29.291Z,2.03
2022-08-16T16:38:57.301Z,2.40
2022-08-16T16:41:28.791Z,2.55
2022-08-16T16:43:59.849Z,2.80
2022-08-16T16:46:42.239Z,2.67
2022-08-16T16:49:14.145Z,2.33
2022-08-16T16:51:44.555Z,2.30
2022-08-16T16:54:22.499Z,2.05
2022-08-16T16:59:27.879Z,2.10
2022-08-16T17:02:38.890Z,2.22
2022-08-16T17:04:48.473Z,2.40
2022-08-16T17:07:16.915Z,2.90
2022-08-16T17:09:47.103Z,2.25
2022-08-16T17:12:47.285Z,2.40
2022-08-16T17:15:02.896Z,2.28
2022-08-16T17:17:59.152Z,2.25
2022-08-16T17:20:21.493Z,2.65
2022-08-16T17:22:55.306Z,2.25
2022-08-16T17:25:24.350Z,2.47
2022-08-16T17:27:52.545Z,2.55
2022-08-16T17:30:44.911Z,2.70
2022-08-16T17:33:21.028Z,2.17
2022-08-16T17:35:55.377Z,2.67
2022-08-16T17:38:43.919Z,2.15
2022-08-16T17:41:14.181Z,2.50
2022-08-16T17:43:45.307Z,2.17
2022-08-16T17:46:50.602Z,4.55
2022-08-16T17:49:04.120Z,2.50
2022-08-16T17:51:31.832Z,2.35
2022-08-16T17:53:59.604Z,2.22
2022-08-16T17:56:27.362Z,2.45
2022-08-16T17:58:54.841Z,2.22
2022-08-16T18:01:27.493Z,2.97
2022-08-16T18:04:09.126Z,2.55
2022-08-16T18:06:39.833Z,2.25
2022-08-16T18:09:10.330Z,2.20
2022-08-16T18:11:41.110Z,2.10
2022-08-16T18:14:10.576Z,3.00
2022-08-16T18:16:41.609Z,2.40
2022-08-16T18:19:11.049Z,2.50
2022-08-16T18:21:57.409Z,2.13
2022-08-16T18:24:28.260Z,2.25
2022-08-16T18:26:55.717Z,2.35
2022-08-16T18:29:23.302Z,2.78
2022-08-16T18:31:51.107Z,2.67
2022-08-16T18:34:20.911Z,2.65
2022-08-16T18:36:48.876Z,2.30
2022-08-16T18:39:16.628Z,2.72
2022-08-16T18:41:47.323Z,2.60
2022-08-16T18:46:56.546Z,3.42
2022-08-16T18:49:24.071Z,2.47
2022-08-16T18:51:57.067Z,2.60
2022-08-16T18:54:26.468Z,2.90
2022-08-16T18:56:56.550Z,2.67
2022-08-16T19:01:59.684Z,2.85
2022-08-16T19:04:55.327Z,3.00
2022-08-16T19:07:21.273Z,2.83
2022-08-16T19:09:49.002Z,3.25
2022-08-16T19:12:16.514Z,2.72
2022-08-16T19:14:45.699Z,3.15
2022-08-16T19:17:13.384Z,2.80
2022-08-16T19:19:40.985Z,2.60
2022-08-16T19:22:11.540Z,3.08
2022-08-16T19:24:39.301Z,3.53
2022-08-16T19:27:13.051Z,2.97
2022-08-16T19:29:41.206Z,3.20
2022-08-16T19:32:28.367Z,2.72
2022-08-16T19:34:57.642Z,2.67
2022-08-16T19:37:26.437Z,3.25
2022-08-16T19:39:54.397Z,3.30
2022-08-16T19:42:26.789Z,3.10
2022-08-16T19:44:58.347Z,2.70
2022-08-16T19:47:26.695Z,3.08
2022-08-16T19:49:55.070Z,3.47
2022-08-16T19:52:30.198Z,3.08
2022-08-16T19:55:05.141Z,2.92
2022-08-16T19:57:32.915Z,3.28
2022-08-16T20:00:00.813Z,3.65
2022-08-16T20:02:51.413Z,3.30
2022-08-16T20:05:31.534Z,2.95
2022-08-16T20:08:04.583Z,3.10
2022-08-16T20:10:33.154Z,3.30
2022-08-16T20:13:02.580Z,3.65
2022-08-16T20:15:33.095Z,3.50
2022-08-16T20:18:22.752Z,3.53
2022-08-16T20:20:54.498Z,3.28
2022-08-16T20:23:24.752Z,3.15
2022-08-16T20:25:58.104Z,3.30
2022-08-16T20:28:39.458Z,3.35
2022-08-16T20:31:13.533Z,4.28
2022-08-16T20:33:40.973Z,3.70
2022-08-16T20:36:08.883Z,3.42
2022-08-16T20:38:47.501Z,3.78
2022-08-16T20:41:16.630Z,4.25
2022-08-16T20:43:45.526Z,3.72
2022-08-16T20:46:14.303Z,4.07
2022-08-16T20:48:43.436Z,3.67
2022-08-16T20:51:11.994Z,3.50
2022-08-16T20:53:44.171Z,3.75
2022-08-16T20:56:12.742Z,3.55
2022-08-16T20:58:40.624Z,3.97
2022-08-16T21:01:09.121Z,3.58
2022-08-16T21:03:38.558Z,3.88
2022-08-16T21:06:06.521Z,3.65
2022-08-16T21:08:51.695Z,3.95
2022-08-16T21:11:22.158Z,3.70
2022-08-16T21:13:50.584Z,3.50
2022-08-16T21:16:23.414Z,3.42
2022-08-16T21:18:53.850Z,3.78
2022-08-16T21:21:21.482Z,3.55
2022-08-16T21:23:50.309Z,3.92
2022-08-16T21:26:17.966Z,3.72
2022-08-16T21:28:45.596Z,3.85
2022-08-16T21:31:16.453Z,3.58
2022-08-16T21:33:54.973Z,3.60
2022-08-16T21:36:34.976Z,3.80
2022-08-16T21:39:06.431Z,3.47
2022-08-16T21:41:35.733Z,3.37
2022-08-16T21:44:03.718Z,3.80
2022-08-16T21:46:31.425Z,3.60
2022-08-16T21:48:59.125Z,3.88
2022-08-16T21:51:28.099Z,3.67
2022-08-16T21:53:57.081Z,4.22
2022-08-16T21:56:24.811Z,3.88
2022-08-16T21:58:53.502Z,3.95
2022-08-16T22:01:23.500Z,3.92
2022-08-16T22:04:27.174Z,3.83
2022-08-16T22:06:42.135Z,4.05
2022-08-16T22:09:17.623Z,3.85
2022-08-16T22:11:45.199Z,3.60
2022-08-16T22:14:12.962Z,3.95
2022-08-16T22:16:42.081Z,3.55
2022-08-16T22:19:10.319Z,4.18
2022-08-16T22:21:38.025Z,4.25
2022-08-16T22:24:06.374Z,3.92
2022-08-16T22:26:42.490Z,4.13
2022-08-16T22:29:15.131Z,4.15
2022-08-16T22:31:44.665Z,3.80
2022-08-16T22:34:13.676Z,3.90
2022-08-16T22:36:41.415Z,4.32
2022-08-16T22:39:12.077Z,3.95
2022-08-16T22:41:44.584Z,3.75
2022-08-16T22:44:14.320Z,3.83
2022-08-16T22:46:42.409Z,3.95
2022-08-16T22:49:11.390Z,4.40
2022-08-16T22:51:40.501Z,3.95
2022-08-16T22:54:45.865Z,3.90
2022-08-16T22:56:57.471Z,3.88
2022-08-16T22:59:25.529Z,3.88
2022-08-16T23:01:53.806Z,3.80
2022-08-16T23:04:25.121Z,3.88
2022-08-16T23:09:20.723Z,3.72
2022-08-16T23:11:48.569Z,3.90
2022-08-16T23:14:16.982Z,4.05
2022-08-16T23:16:47.407Z,4.18
2022-08-16T23:19:19.352Z,3.85
2022-08-16T23:21:49.188Z,4.63
2022-08-16T23:24:20.784Z,4.88
2022-08-16T23:26:49.747Z,4.03
2022-08-16T23:29:25.577Z,4.75
2022-08-16T23:31:59.577Z,5.03
2022-08-16T23:34:29.075Z,5.43
2022-08-16T23:36:57.093Z,5.88
2022-08-16T23:39:25.302Z,6.80
2022-08-16T23:41:52.975Z,5.03
2022-08-16T23:44:45.547Z,5.40
2022-08-16T23:47:08.410Z,4.60
2022-08-16T23:49:57.857Z,5.13
2022-08-16T23:52:48.856Z,4.30
2022-08-16T23:55:12.075Z,3.78
2022-08-16T23:57:39.573Z,4.70
